Terminal Aerodrome Forecast
Issued by NWS Memphis, TN

Home | Current Version | Previous Version | Text Only | Print | Product List | Glossary On
Versions: 1 2 3 4 5 6 7 8 9 10 11 12 13 14 15 16 17 18 19
000
FTUS44 KMEG 200520
TAFJBR
TAF
KJBR 200520Z 2006/2106 04003KT P6SM BKN040 OVC100
     FM201000 04003KT P6SM SCT015 BKN025
      TEMPO 2015/2018 BKN015
     FM202100 06004KT P6SM SKC=

USA.gov is the U.S. government's official web portal to all federal, state and local government web resources and services.